sensor_id;sensor_type;location;lat;lon;timestamp;pressure;altitude;pressure_sealevel;temperature;humidity
23164;BME280;31429;42.674;23.350;2022-07-03T00:00:34;95200.91;;;22.07;100.00
23164;BME280;31429;42.674;23.350;2022-07-03T00:01:35;95196.38;;;22.09;100.00
23164;BME280;31429;42.674;23.350;2022-07-03T00:02:35;95197.69;;;22.14;100.00
23164;BME280;31429;42.674;23.350;2022-07-03T00:03:36;95194.38;;;22.12;100.00
23164;BME280;31429;42.674;23.350;2022-07-03T00:04:37;95198.75;;;22.12;100.00
23164;BME280;31429;42.674;23.350;2022-07-03T00:05:37;95117.56;;;21.50;100.00
23164;BME280;31429;42.674;23.350;2022-07-03T00:06:38;95202.44;;;22.09;100.00
23164;BME280;31429;42.674;23.350;2022-07-03T00:07:39;95179.34;;;21.94;100.00
23164;BME280;31429;42.674;23.350;2022-07-03T00:08:40;95205.28;;;22.17;100.00
23164;BME280;31429;42.674;23.350;2022-07-03T00:09:42;95194.25;;;22.14;100.00
23164;BME280;31429;42.674;23.350;2022-07-03T00:10:43;95201.28;;;22.13;100.00
23164;BME280;31429;42.674;23.350;2022-07-03T00:11:43;95209.63;;;22.06;100.00
23164;BME280;31429;42.674;23.350;2022-07-03T00:12:44;95137.94;;;21.67;100.00
23164;BME280;31429;42.674;23.350;2022-07-03T00:13:45;95207.38;;;22.01;100.00
23164;BME280;31429;42.674;23.350;2022-07-03T00:14:46;95192.16;;;21.84;100.00
23164;BME280;31429;42.674;23.350;2022-07-03T00:15:46;95203.94;;;21.90;100.00
23164;BME280;31429;42.674;23.350;2022-07-03T00:16:47;95198.59;;;21.91;100.00
23164;BME280;31429;42.674;23.350;2022-07-03T00:17:48;95196.84;;;22.03;100.00
23164;BME280;31429;42.674;23.350;2022-07-03T00:18:49;95202.19;;;22.01;100.00
23164;BME280;31429;42.674;23.350;2022-07-03T00:19:50;95183.47;;;21.96;100.00
23164;BME280;31429;42.674;23.350;2022-07-03T00:20:55;95198.91;;;22.10;100.00
23164;BME280;31429;42.674;23.350;2022-07-03T00:22:02;95195.44;;;22.10;100.00
23164;BME280;31429;42.674;23.350;2022-07-03T00:23:07;95196.06;;;22.13;100.00
23164;BME280;31429;42.674;23.350;2022-07-03T00:24:16;95180.28;;;21.93;100.00
23164;BME280;31429;42.674;23.350;2022-07-03T00:25:18;95199.00;;;22.09;100.00
23164;BME280;31429;42.674;23.350;2022-07-03T00:26:21;95191.88;;;22.00;100.00
23164;BME280;31429;42.674;23.350;2022-07-03T00:27:24;95192.94;;;21.97;100.00
23164;BME280;31429;42.674;23.350;2022-07-03T00:28:25;95180.00;;;21.85;100.00
23164;BME280;31429;42.674;23.350;2022-07-03T00:29:31;95193.16;;;21.94;100.00
23164;BME280;31429;42.674;23.350;2022-07-03T00:30:36;95182.59;;;21.85;100.00
23164;BME280;31429;42.674;23.350;2022-07-03T00:31:36;95192.88;;;21.86;100.00
23164;BME280;31429;42.674;23.350;2022-07-03T00:32:38;95190.72;;;21.80;100.00
23164;BME280;31429;42.674;23.350;2022-07-03T00:33:42;95188.56;;;21.74;100.00
23164;BME280;31429;42.674;23.350;2022-07-03T00:34:47;95188.00;;;21.70;100.00
23164;BME280;31429;42.674;23.350;2022-07-03T00:35:50;95182.78;;;21.70;100.00
23164;BME280;31429;42.674;23.350;2022-07-03T00:36:55;95186.09;;;21.72;100.00
23164;BME280;31429;42.674;23.350;2022-07-03T00:37:57;95129.00;;;21.36;100.00
23164;BME280;31429;42.674;23.350;2022-07-03T00:38:58;95108.91;;;21.14;100.00
23164;BME280;31429;42.674;23.350;2022-07-03T00:39:59;95174.34;;;21.56;100.00
23164;BME280;31429;42.674;23.350;2022-07-03T00:41:02;95164.00;;;21.43;100.00
23164;BME280;31429;42.674;23.350;2022-07-03T00:42:05;95175.47;;;21.41;100.00
23164;BME280;31429;42.674;23.350;2022-07-03T00:43:06;95178.88;;;21.30;100.00
23164;BME280;31429;42.674;23.350;2022-07-03T00:44:09;95172.44;;;21.23;100.00
23164;BME280;31429;42.674;23.350;2022-07-03T00:45:12;95185.91;;;21.17;100.00
23164;BME280;31429;42.674;23.350;2022-07-03T00:46:17;95167.41;;;21.09;100.00
23164;BME280;31429;42.674;23.350;2022-07-03T00:47:19;95177.00;;;21.08;100.00
23164;BME280;31429;42.674;23.350;2022-07-03T00:48:21;95182.38;;;21.05;100.00
23164;BME280;31429;42.674;23.350;2022-07-03T00:49:23;95174.41;;;20.96;100.00
23164;BME280;31429;42.674;23.350;2022-07-03T00:50:26;95171.75;;;20.85;100.00
23164;BME280;31429;42.674;23.350;2022-07-03T00:51:28;95170.50;;;20.78;100.00
23164;BME280;31429;42.674;23.350;2022-07-03T00:52:30;95156.16;;;20.72;100.00
23164;BME280;31429;42.674;23.350;2022-07-03T00:53:32;95169.91;;;20.74;100.00
23164;BME280;31429;42.674;23.350;2022-07-03T00:54:39;95167.63;;;20.70;100.00
23164;BME280;31429;42.674;23.350;2022-07-03T00:55:44;95172.22;;;20.66;100.00
23164;BME280;31429;42.674;23.350;2022-07-03T00:56:51;95171.69;;;20.61;100.00
23164;BME280;31429;42.674;23.350;2022-07-03T00:57:55;95169.00;;;20.62;100.00
23164;BME280;31429;42.674;23.350;2022-07-03T00:58:57;95136.63;;;20.43;100.00
23164;BME280;31429;42.674;23.350;2022-07-03T00:59:59;95167.47;;;20.47;100.00
23164;BME280;31429;42.674;23.350;2022-07-03T01:01:01;95169.03;;;20.50;100.00
23164;BME280;31429;42.674;23.350;2022-07-03T01:02:04;95166.75;;;20.45;100.00
23164;BME280;31429;42.674;23.350;2022-07-03T01:03:06;95133.44;;;20.14;100.00
23164;BME280;31429;42.674;23.350;2022-07-03T01:04:17;95168.94;;;20.39;100.00
23164;BME280;31429;42.674;23.350;2022-07-03T01:05:26;95165.94;;;20.32;100.00
23164;BME280;31429;42.674;23.350;2022-07-03T01:06:33;95165.94;;;20.32;100.00
23164;BME280;31429;42.674;23.350;2022-07-03T01:07:41;95094.63;;;19.87;100.00
23164;BME280;31429;42.674;23.350;2022-07-03T01:08:49;95158.88;;;20.34;100.00
23164;BME280;31429;42.674;23.350;2022-07-03T01:09:55;95163.75;;;20.39;100.00
23164;BME280;31429;42.674;23.350;2022-07-03T01:11:17;95133.81;;;20.21;100.00
23164;BME280;31429;42.674;23.350;2022-07-03T01:12:26;95164.75;;;20.24;100.00
23164;BME280;31429;42.674;23.350;2022-07-03T01:13:39;95155.03;;;20.15;100.00
23164;BME280;31429;42.674;23.350;2022-07-03T01:14:48;95159.69;;;20.22;100.00
23164;BME280;31429;42.674;23.350;2022-07-03T01:16:00;95158.13;;;20.32;100.00
23164;BME280;31429;42.674;23.350;2022-07-03T01:17:04;95156.06;;;20.37;100.00
23164;BME280;31429;42.674;23.350;2022-07-03T01:18:13;95152.44;;;20.40;100.00
23164;BME280;31429;42.674;23.350;2022-07-03T01:19:36;95143.25;;;20.47;100.00
23164;BME280;31429;42.674;23.350;2022-07-03T01:20:38;95145.75;;;20.48;100.00
23164;BME280;31429;42.674;23.350;2022-07-03T01:21:50;95151.16;;;20.45;100.00
23164;BME280;31429;42.674;23.350;2022-07-03T01:22:58;95150.88;;;20.37;100.00
23164;BME280;31429;42.674;23.350;2022-07-03T01:24:17;95153.88;;;20.19;100.00
23164;BME280;31429;42.674;23.350;2022-07-03T01:25:25;95148.69;;;20.19;100.00
23164;BME280;31429;42.674;23.350;2022-07-03T01:26:28;95144.13;;;20.22;100.00
23164;BME280;31429;42.674;23.350;2022-07-03T01:27:35;95129.50;;;20.08;100.00
23164;BME280;31429;42.674;23.350;2022-07-03T01:28:44;95152.75;;;20.23;100.00
23164;BME280;31429;42.674;23.350;2022-07-03T01:29:52;95154.81;;;20.05;100.00
23164;BME280;31429;42.674;23.350;2022-07-03T01:30:57;95137.09;;;19.86;100.00
23164;BME280;31429;42.674;23.350;2022-07-03T01:32:01;95146.63;;;19.86;100.00
23164;BME280;31429;42.674;23.350;2022-07-03T01:33:07;95145.59;;;19.88;100.00
23164;BME280;31429;42.674;23.350;2022-07-03T01:34:12;95145.91;;;19.96;100.00
23164;BME280;31429;42.674;23.350;2022-07-03T01:35:21;95149.00;;;20.01;100.00
23164;BME280;31429;42.674;23.350;2022-07-03T01:36:24;95145.69;;;19.99;100.00
23164;BME280;31429;42.674;23.350;2022-07-03T01:37:27;95149.41;;;19.95;100.00
23164;BME280;31429;42.674;23.350;2022-07-03T01:38:29;95110.72;;;19.80;100.00
23164;BME280;31429;42.674;23.350;2022-07-03T01:39:31;95134.28;;;19.89;100.00
23164;BME280;31429;42.674;23.350;2022-07-03T01:40:36;95144.66;;;20.02;100.00
23164;BME280;31429;42.674;23.350;2022-07-03T01:41:38;95145.38;;;20.04;100.00
23164;BME280;31429;42.674;23.350;2022-07-03T01:42:40;95148.50;;;19.96;100.00
23164;BME280;31429;42.674;23.350;2022-07-03T01:43:47;95151.63;;;19.89;100.00
23164;BME280;31429;42.674;23.350;2022-07-03T01:44:51;95151.19;;;19.82;100.00
23164;BME280;31429;42.674;23.350;2022-07-03T01:45:53;95146.00;;;19.82;100.00
23164;BME280;31429;42.674;23.350;2022-07-03T01:46:56;95150.69;;;19.77;100.00
23164;BME280;31429;42.674;23.350;2022-07-03T01:47:58;95149.22;;;19.73;100.00
23164;BME280;31429;42.674;23.350;2022-07-03T01:49:02;95141.13;;;19.65;100.00
23164;BME280;31429;42.674;23.350;2022-07-03T01:50:07;95146.81;;;19.70;100.00
23164;BME280;31429;42.674;23.350;2022-07-03T01:51:13;95122.66;;;19.57;100.00
23164;BME280;31429;42.674;23.350;2022-07-03T01:52:15;95154.72;;;19.69;100.00
23164;BME280;31429;42.674;23.350;2022-07-03T01:53:16;95151.41;;;19.67;100.00
23164;BME280;31429;42.674;23.350;2022-07-03T01:54:18;95153.03;;;19.68;100.00
23164;BME280;31429;42.674;23.350;2022-07-03T01:55:20;95152.31;;;19.66;100.00
23164;BME280;31429;42.674;23.350;2022-07-03T01:56:22;95156.59;;;19.67;100.00
23164;BME280;31429;42.674;23.350;2022-07-03T01:57:28;95147.84;;;19.68;100.00
23164;BME280;31429;42.674;23.350;2022-07-03T01:58:35;95150.78;;;19.63;100.00
23164;BME280;31429;42.674;23.350;2022-07-03T01:59:36;95132.38;;;19.54;100.00
23164;BME280;31429;42.674;23.350;2022-07-03T02:00:41;95152.53;;;19.63;100.00
23164;BME280;31429;42.674;23.350;2022-07-03T02:01:51;95150.03;;;19.61;100.00
23164;BME280;31429;42.674;23.350;2022-07-03T02:02:57;95151.81;;;19.61;100.00
23164;BME280;31429;42.674;23.350;2022-07-03T02:04:02;95139.75;;;19.60;100.00
23164;BME280;31429;42.674;23.350;2022-07-03T02:05:08;95152.84;;;19.71;100.00
23164;BME280;31429;42.674;23.350;2022-07-03T02:06:12;95150.75;;;19.76;100.00
23164;BME280;31429;42.674;23.350;2022-07-03T02:07:28;95149.13;;;19.75;100.00
23164;BME280;31429;42.674;23.350;2022-07-03T02:08:40;95155.22;;;19.61;100.00
23164;BME280;31429;42.674;23.350;2022-07-03T02:09:48;95153.56;;;19.60;100.00
23164;BME280;31429;42.674;23.350;2022-07-03T02:10:57;95149.81;;;19.64;100.00
23164;BME280;31429;42.674;23.350;2022-07-03T02:12:02;95149.94;;;19.63;100.00
23164;BME280;31429;42.674;23.350;2022-07-03T02:13:08;95130.31;;;19.59;100.00
23164;BME280;31429;42.674;23.350;2022-07-03T02:14:17;95125.00;;;19.47;100.00
23164;BME280;31429;42.674;23.350;2022-07-03T02:15:26;95132.59;;;19.50;100.00
23164;BME280;31429;42.674;23.350;2022-07-03T02:16:30;95148.06;;;19.65;100.00
23164;BME280;31429;42.674;23.350;2022-07-03T02:17:41;95152.00;;;19.70;100.00
23164;BME280;31429;42.674;23.350;2022-07-03T02:18:43;95120.78;;;19.46;100.00
23164;BME280;31429;42.674;23.350;2022-07-03T02:19:50;95154.28;;;19.62;100.00
23164;BME280;31429;42.674;23.350;2022-07-03T02:21:02;95152.22;;;19.67;100.00
23164;BME280;31429;42.674;23.350;2022-07-03T02:22:07;95148.38;;;19.60;100.00
23164;BME280;31429;42.674;23.350;2022-07-03T02:23:10;95147.22;;;19.52;100.00
23164;BME280;31429;42.674;23.350;2022-07-03T02:24:17;95145.28;;;19.55;100.00
23164;BME280;31429;42.674;23.350;2022-07-03T02:25:22;95120.50;;;19.37;100.00
23164;BME280;31429;42.674;23.350;2022-07-03T02:26:27;95142.13;;;19.50;100.00
23164;BME280;31429;42.674;23.350;2022-07-03T02:27:33;95146.50;;;19.49;100.00
23164;BME280;31429;42.674;23.350;2022-07-03T02:28:51;95147.69;;;19.31;100.00
23164;BME280;31429;42.674;23.350;2022-07-03T02:29:59;95149.88;;;19.37;100.00
23164;BME280;31429;42.674;23.350;2022-07-03T02:31:03;95127.09;;;19.16;100.00
23164;BME280;31429;42.674;23.350;2022-07-03T02:32:11;95154.34;;;19.35;100.00
23164;BME280;31429;42.674;23.350;2022-07-03T02:33:19;95155.06;;;19.37;100.00
23164;BME280;31429;42.674;23.350;2022-07-03T02:34:23;95152.94;;;19.44;100.00
23164;BME280;31429;42.674;23.350;2022-07-03T02:35:26;95152.09;;;19.43;100.00
23164;BME280;31429;42.674;23.350;2022-07-03T02:36:28;95149.59;;;19.42;100.00
23164;BME280;31429;42.674;23.350;2022-07-03T02:37:32;95138.97;;;19.32;100.00
23164;BME280;31429;42.674;23.350;2022-07-03T02:38:33;95155.28;;;19.47;100.00
23164;BME280;31429;42.674;23.350;2022-07-03T02:39:41;95155.41;;;19.45;100.00
23164;BME280;31429;42.674;23.350;2022-07-03T02:40:47;95147.09;;;19.40;100.00
23164;BME280;31429;42.674;23.350;2022-07-03T02:41:53;95127.84;;;19.18;100.00
23164;BME280;31429;42.674;23.350;2022-07-03T02:43:12;95158.19;;;19.42;100.00
23164;BME280;31429;42.674;23.350;2022-07-03T02:44:23;95153.13;;;19.54;100.00
23164;BME280;31429;42.674;23.350;2022-07-03T02:45:30;95156.03;;;19.49;100.00
23164;BME280;31429;42.674;23.350;2022-07-03T02:46:38;95135.22;;;19.36;100.00
23164;BME280;31429;42.674;23.350;2022-07-03T02:47:56;95162.47;;;19.43;100.00
23164;BME280;31429;42.674;23.350;2022-07-03T02:49:06;95153.75;;;19.44;100.00
23164;BME280;31429;42.674;23.350;2022-07-03T02:50:15;95158.72;;;19.47;100.00
23164;BME280;31429;42.674;23.350;2022-07-03T02:51:21;95152.94;;;19.44;100.00
23164;BME280;31429;42.674;23.350;2022-07-03T02:52:29;95150.78;;;19.36;100.00
23164;BME280;31429;42.674;23.350;2022-07-03T02:53:38;95121.50;;;19.22;100.00
23164;BME280;31429;42.674;23.350;2022-07-03T02:54:44;95163.22;;;19.31;100.00
23164;BME280;31429;42.674;23.350;2022-07-03T02:55:46;95157.94;;;19.33;100.00
23164;BME280;31429;42.674;23.350;2022-07-03T02:56:55;95162.00;;;19.37;100.00
23164;BME280;31429;42.674;23.350;2022-07-03T02:58:09;95167.03;;;19.40;100.00
23164;BME280;31429;42.674;23.350;2022-07-03T02:59:26;95165.78;;;19.45;100.00
23164;BME280;31429;42.674;23.350;2022-07-03T03:00:35;95158.00;;;19.45;100.00
23164;BME280;31429;42.674;23.350;2022-07-03T03:01:42;95160.72;;;19.44;100.00
23164;BME280;31429;42.674;23.350;2022-07-03T03:02:54;95165.97;;;19.42;100.00
23164;BME280;31429;42.674;23.350;2022-07-03T03:04:06;95166.81;;;19.43;100.00
23164;BME280;31429;42.674;23.350;2022-07-03T03:05:12;95164.50;;;19.38;100.00
23164;BME280;31429;42.674;23.350;2022-07-03T03:06:15;95177.56;;;19.37;100.00
23164;BME280;31429;42.674;23.350;2022-07-03T03:07:26;95169.44;;;19.29;100.00
23164;BME280;31429;42.674;23.350;2022-07-03T03:08:34;95169.91;;;19.35;100.00
23164;BME280;31429;42.674;23.350;2022-07-03T03:09:40;95172.97;;;19.28;100.00
23164;BME280;31429;42.674;23.350;2022-07-03T03:10:43;95166.34;;;19.24;100.00
23164;BME280;31429;42.674;23.350;2022-07-03T03:11:45;95170.88;;;19.20;100.00
23164;BME280;31429;42.674;23.350;2022-07-03T03:12:47;95148.34;;;19.08;100.00
23164;BME280;31429;42.674;23.350;2022-07-03T03:13:55;95168.38;;;19.19;100.00
23164;BME280;31429;42.674;23.350;2022-07-03T03:15:03;95174.50;;;19.18;100.00
23164;BME280;31429;42.674;23.350;2022-07-03T03:16:06;95165.34;;;19.12;100.00
23164;BME280;31429;42.674;23.350;2022-07-03T03:17:08;95148.34;;;19.08;100.00
23164;BME280;31429;42.674;23.350;2022-07-03T03:18:11;95156.03;;;19.10;100.00
23164;BME280;31429;42.674;23.350;2022-07-03T03:19:13;95171.72;;;19.21;100.00
23164;BME280;31429;42.674;23.350;2022-07-03T03:20:16;95162.25;;;19.20;100.00
23164;BME280;31429;42.674;23.350;2022-07-03T03:21:18;95166.22;;;19.25;100.00
23164;BME280;31429;42.674;23.350;2022-07-03T03:22:28;95171.94;;;19.30;100.00
23164;BME280;31429;42.674;23.350;2022-07-03T03:23:42;95173.59;;;19.31;100.00
23164;BME280;31429;42.674;23.350;2022-07-03T03:24:44;95159.38;;;19.24;100.00
23164;BME280;31429;42.674;23.350;2022-07-03T03:25:45;95173.81;;;19.28;100.00
23164;BME280;31429;42.674;23.350;2022-07-03T03:26:46;95141.47;;;19.07;100.00
23164;BME280;31429;42.674;23.350;2022-07-03T03:27:47;95177.50;;;19.24;100.00
23164;BME280;31429;42.674;23.350;2022-07-03T03:28:48;95181.56;;;19.28;100.00
23164;BME280;31429;42.674;23.350;2022-07-03T03:29:50;95173.69;;;19.30;100.00
23164;BME280;31429;42.674;23.350;2022-07-03T03:30:52;95177.75;;;19.34;100.00
23164;BME280;31429;42.674;23.350;2022-07-03T03:31:52;95174.31;;;19.33;100.00
23164;BME280;31429;42.674;23.350;2022-07-03T03:32:53;95162.72;;;19.26;100.00
23164;BME280;31429;42.674;23.350;2022-07-03T03:33:55;95171.72;;;19.33;100.00
23164;BME280;31429;42.674;23.350;2022-07-03T03:34:56;95161.16;;;19.24;100.00
23164;BME280;31429;42.674;23.350;2022-07-03T03:35:57;95170.09;;;19.32;100.00
23164;BME280;31429;42.674;23.350;2022-07-03T03:36:58;95172.88;;;19.29;100.00
23164;BME280;31429;42.674;23.350;2022-07-03T03:37:59;95147.22;;;19.25;100.00
23164;BME280;31429;42.674;23.350;2022-07-03T03:39:00;95170.63;;;19.37;100.00
23164;BME280;31429;42.674;23.350;2022-07-03T03:40:02;95170.09;;;19.32;100.00
23164;BME280;31429;42.674;23.350;2022-07-03T03:41:03;95165.19;;;19.28;100.00
23164;BME280;31429;42.674;23.350;2022-07-03T03:42:05;95173.22;;;19.37;100.00
23164;BME280;31429;42.674;23.350;2022-07-03T03:43:06;95170.63;;;19.37;100.00
23164;BME280;31429;42.674;23.350;2022-07-03T03:44:07;95173.41;;;19.34;100.00
23164;BME280;31429;42.674;23.350;2022-07-03T03:45:09;95168.09;;;19.36;100.00
23164;BME280;31429;42.674;23.350;2022-07-03T03:46:11;95143.72;;;19.26;100.00
23164;BME280;31429;42.674;23.350;2022-07-03T03:47:12;95167.03;;;19.40;100.00
23164;BME280;31429;42.674;23.350;2022-07-03T03:48:13;95172.09;;;19.41;100.00
23164;BME280;31429;42.674;23.350;2022-07-03T03:49:13;95172.84;;;19.43;100.00
23164;BME280;31429;42.674;23.350;2022-07-03T03:50:14;95174.59;;;19.43;100.00
23164;BME280;31429;42.674;23.350;2022-07-03T03:51:15;95174.91;;;19.51;100.00
23164;BME280;31429;42.674;23.350;2022-07-03T03:52:16;95170.44;;;19.53;100.00
23164;BME280;31429;42.674;23.350;2022-07-03T03:53:18;95175.25;;;19.59;100.00
23164;BME280;31429;42.674;23.350;2022-07-03T03:54:19;95156.44;;;19.56;100.00
23164;BME280;31429;42.674;23.350;2022-07-03T03:55:20;95178.69;;;19.72;100.00
23164;BME280;31429;42.674;23.350;2022-07-03T03:56:21;95186.59;;;19.83;100.00
23164;BME280;31429;42.674;23.350;2022-07-03T03:57:23;95169.88;;;19.75;100.00
23164;BME280;31429;42.674;23.350;2022-07-03T03:58:24;95176.22;;;19.83;100.00
23164;BME280;31429;42.674;23.350;2022-07-03T03:59:25;95162.09;;;19.75;100.00
23164;BME280;31429;42.674;23.350;2022-07-03T04:00:26;95174.75;;;19.79;100.00
23164;BME280;31429;42.674;23.350;2022-07-03T04:01:28;95172.88;;;19.81;100.00
23164;BME280;31429;42.674;23.350;2022-07-03T04:02:29;95174.66;;;19.81;100.00
23164;BME280;31429;42.674;23.350;2022-07-03T04:03:30;95164.56;;;19.76;100.00
23164;BME280;31429;42.674;23.350;2022-07-03T04:04:31;95175.19;;;19.86;100.00
23164;BME280;31429;42.674;23.350;2022-07-03T04:05:32;95175.91;;;19.88;100.00
23164;BME280;31429;42.674;23.350;2022-07-03T04:06:32;95175.38;;;19.95;100.00
23164;BME280;31429;42.674;23.350;2022-07-03T04:07:33;95149.00;;;19.76;100.00
23164;BME280;31429;42.674;23.350;2022-07-03T04:08:34;95143.72;;;19.78;100.00
23164;BME280;31429;42.674;23.350;2022-07-03T04:09:35;95174.44;;;19.96;100.00
23164;BME280;31429;42.674;23.350;2022-07-03T04:10:36;95171.63;;;19.87;100.00
23164;BME280;31429;42.674;23.350;2022-07-03T04:11:37;95148.56;;;19.70;100.00
23164;BME280;31429;42.674;23.350;2022-07-03T04:12:37;95106.78;;;19.49;100.00
23164;BME280;31429;42.674;23.350;2022-07-03T04:13:38;95168.41;;;19.96;100.00
23164;BME280;31429;42.674;23.350;2022-07-03T04:14:39;95174.44;;;19.96;100.00
23164;BME280;31429;42.674;23.350;2022-07-03T04:15:39;95175.38;;;19.95;100.00
23164;BME280;31429;42.674;23.350;2022-07-03T04:16:41;95173.53;;;19.97;100.00
23164;BME280;31429;42.674;23.350;2022-07-03T04:17:42;95173.31;;;20.00;100.00
23164;BME280;31429;42.674;23.350;2022-07-03T04:18:43;95173.41;;;20.12;100.00
23164;BME280;31429;42.674;23.350;2022-07-03T04:19:43;95173.72;;;20.20;100.00
23164;BME280;31429;42.674;23.350;2022-07-03T04:20:44;95168.03;;;20.27;100.00
23164;BME280;31429;42.674;23.350;2022-07-03T04:21:45;95177.84;;;20.47;100.00
23164;BME280;31429;42.674;23.350;2022-07-03T04:22:46;95172.03;;;20.56;100.00
23164;BME280;31429;42.674;23.350;2022-07-03T04:23:48;95150.97;;;20.48;100.00
23164;BME280;31429;42.674;23.350;2022-07-03T04:24:49;95176.59;;;20.66;100.00
23164;BME280;31429;42.674;23.350;2022-07-03T04:25:49;95174.50;;;20.71;100.00
23164;BME280;31429;42.674;23.350;2022-07-03T04:26:50;95176.97;;;20.72;100.00
23164;BME280;31429;42.674;23.350;2022-07-03T04:27:51;95159.81;;;20.70;100.00
23164;BME280;31429;42.674;23.350;2022-07-03T04:28:51;95170.69;;;20.87;100.00
23164;BME280;31429;42.674;23.350;2022-07-03T04:29:52;95178.56;;;20.98;100.00
23164;BME280;31429;42.674;23.350;2022-07-03T04:30:53;95169.78;;;21.12;100.00
23164;BME280;31429;42.674;23.350;2022-07-03T04:31:55;95164.50;;;21.13;100.00
23164;BME280;31429;42.674;23.350;2022-07-03T04:32:55;95163.03;;;21.09;100.00
23164;BME280;31429;42.674;23.350;2022-07-03T04:33:56;95123.28;;;20.84;100.00
23164;BME280;31429;42.674;23.350;2022-07-03T04:34:57;95147.25;;;21.00;100.00
23164;BME280;31429;42.674;23.350;2022-07-03T04:35:57;95162.31;;;21.07;100.00
23164;BME280;31429;42.674;23.350;2022-07-03T04:36:58;95158.84;;;21.07;100.00
23164;BME280;31429;42.674;23.350;2022-07-03T04:37:59;95144.34;;;20.92;100.00
23164;BME280;31429;42.674;23.350;2022-07-03T04:38:59;95159.16;;;20.91;100.00
23164;BME280;31429;42.674;23.350;2022-07-03T04:40:00;95164.44;;;20.90;100.00
23164;BME280;31429;42.674;23.350;2022-07-03T04:41:01;95164.16;;;20.82;100.00
23164;BME280;31429;42.674;23.350;2022-07-03T04:42:02;95145.19;;;20.69;100.00
23164;BME280;31429;42.674;23.350;2022-07-03T04:43:03;95167.09;;;20.77;100.00
23164;BME280;31429;42.674;23.350;2022-07-03T04:44:04;95165.84;;;20.83;100.00
23164;BME280;31429;42.674;23.350;2022-07-03T04:45:06;95169.84;;;20.87;100.00
23164;BME280;31429;42.674;23.350;2022-07-03T04:46:07;95172.78;;;20.82;100.00
23164;BME280;31429;42.674;23.350;2022-07-03T04:47:09;95171.41;;;20.89;100.00
23164;BME280;31429;42.674;23.350;2022-07-03T04:48:10;95171.81;;;20.96;100.00
23164;BME280;31429;42.674;23.350;2022-07-03T04:49:11;95175.84;;;21.00;100.00
23164;BME280;31429;42.674;23.350;2022-07-03T04:50:12;95176.56;;;21.02;100.00
23164;BME280;31429;42.674;23.350;2022-07-03T04:51:12;95181.38;;;21.08;100.00
23164;BME280;31429;42.674;23.350;2022-07-03T04:52:13;95180.78;;;21.15;100.00
23164;BME280;31429;42.674;23.350;2022-07-03T04:53:14;95164.03;;;21.19;100.00
23164;BME280;31429;42.674;23.350;2022-07-03T04:54:15;95177.94;;;21.31;100.00
23164;BME280;31429;42.674;23.350;2022-07-03T04:55:16;95180.66;;;21.41;100.00
23164;BME280;31429;42.674;23.350;2022-07-03T04:56:16;95176.44;;;21.40;100.00
23164;BME280;31429;42.674;23.350;2022-07-03T04:57:17;95178.06;;;21.41;100.00
23164;BME280;31429;42.674;23.350;2022-07-03T04:58:18;95187.63;;;21.40;100.00
23164;BME280;31429;42.674;23.350;2022-07-03T04:59:19;95185.66;;;21.44;100.00
23164;BME280;31429;42.674;23.350;2022-07-03T05:00:20;95183.91;;;21.55;100.00
23164;BME280;31429;42.674;23.350;2022-07-03T05:01:20;95185.00;;;21.64;100.00
23164;BME280;31429;42.674;23.350;2022-07-03T05:02:22;95176.13;;;21.55;100.00
23164;BME280;31429;42.674;23.350;2022-07-03T05:03:23;95179.38;;;21.46;100.00
23164;BME280;31429;42.674;23.350;2022-07-03T05:04:24;95174.97;;;21.59;100.00
23164;BME280;31429;42.674;23.350;2022-07-03T05:05:24;95176.13;;;21.55;100.00
23164;BME280;31429;42.674;23.350;2022-07-03T05:06:25;95169.75;;;21.59;100.00
23164;BME280;31429;42.674;23.350;2022-07-03T05:07:26;95157.81;;;21.57;100.00
23164;BME280;31429;42.674;23.350;2022-07-03T05:08:27;95143.34;;;21.53;100.00
23164;BME280;31429;42.674;23.350;2022-07-03T05:09:27;95168.34;;;21.66;100.00
23164;BME280;31429;42.674;23.350;2022-07-03T05:10:28;95166.66;;;21.65;100.00
23164;BME280;31429;42.674;23.350;2022-07-03T05:11:29;95170.72;;;21.69;100.00
23164;BME280;31429;42.674;23.350;2022-07-03T05:12:29;95165.91;;;21.76;100.00
23164;BME280;31429;42.674;23.350;2022-07-03T05:13:30;95148.72;;;21.73;100.00
23164;BME280;31429;42.674;23.350;2022-07-03T05:14:31;95146.84;;;21.75;100.00
23164;BME280;31429;42.674;23.350;2022-07-03T05:15:31;95169.09;;;21.80;100.00
23164;BME280;31429;42.674;23.350;2022-07-03T05:16:32;95165.53;;;21.81;100.00
23164;BME280;31429;42.674;23.350;2022-07-03T05:17:34;95167.91;;;21.84;100.00
23164;BME280;31429;42.674;23.350;2022-07-03T05:18:35;95169.69;;;21.83;100.00
23164;BME280;31429;42.674;23.350;2022-07-03T05:19:36;95128.59;;;21.64;100.00
23164;BME280;31429;42.674;23.350;2022-07-03T05:20:37;95156.38;;;21.88;100.00
23164;BME280;31429;42.674;23.350;2022-07-03T05:21:38;95162.53;;;21.98;100.00
23164;BME280;31429;42.674;23.350;2022-07-03T05:22:39;95170.28;;;21.87;100.00
23164;BME280;31429;42.674;23.350;2022-07-03T05:23:39;95169.69;;;21.83;100.00
23164;BME280;31429;42.674;23.350;2022-07-03T05:24:40;95174.47;;;21.89;100.00
23164;BME280;31429;42.674;23.350;2022-07-03T05:25:41;95171.53;;;21.94;100.00
23164;BME280;31429;42.674;23.350;2022-07-03T05:26:41;95176.97;;;22.02;100.00
23164;BME280;31429;42.674;23.350;2022-07-03T05:27:42;95176.75;;;22.05;100.00
23164;BME280;31429;42.674;23.350;2022-07-03T05:28:43;95179.00;;;22.09;100.00